sensor_id;sensor_type;location;lat;lon;timestamp;temperature;humidity
22153;DHT22;11242;50.536;12.688;2023-04-03T00:01:03;1.20;99.90
22153;DHT22;11242;50.536;12.688;2023-04-03T00:03:29;1.20;99.90
22153;DHT22;11242;50.536;12.688;2023-04-03T00:05:55;1.20;99.90
22153;DHT22;11242;50.536;12.688;2023-04-03T00:08:21;1.20;99.90
22153;DHT22;11242;50.536;12.688;2023-04-03T00:10:46;1.20;99.90
22153;DHT22;11242;50.536;12.688;2023-04-03T00:13:12;1.20;99.90
22153;DHT22;11242;50.536;12.688;2023-04-03T00:15:38;1.20;99.90
22153;DHT22;11242;50.536;12.688;2023-04-03T00:18:04;1.20;99.90
22153;DHT22;11242;50.536;12.688;2023-04-03T00:20:30;1.20;99.90
22153;DHT22;11242;50.536;12.688;2023-04-03T00:22:56;1.20;99.90
22153;DHT22;11242;50.536;12.688;2023-04-03T00:25:21;1.20;99.90
22153;DHT22;11242;50.536;12.688;2023-04-03T00:27:47;1.10;99.90
22153;DHT22;11242;50.536;12.688;2023-04-03T00:30:14;1.10;99.90
22153;DHT22;11242;50.536;12.688;2023-04-03T00:32:40;1.10;99.90
22153;DHT22;11242;50.536;12.688;2023-04-03T00:35:06;1.10;99.90
22153;DHT22;11242;50.536;12.688;2023-04-03T00:37:32;1.10;99.90
22153;DHT22;11242;50.536;12.688;2023-04-03T00:39:58;1.10;99.90
22153;DHT22;11242;50.536;12.688;2023-04-03T00:42:24;1.10;99.90
22153;DHT22;11242;50.536;12.688;2023-04-03T00:47:18;1.00;99.90
22153;DHT22;11242;50.536;12.688;2023-04-03T00:49:44;1.00;99.90
22153;DHT22;11242;50.536;12.688;2023-04-03T00:52:14;1.00;99.90
22153;DHT22;11242;50.536;12.688;2023-04-03T00:54:41;1.00;99.90
22153;DHT22;11242;50.536;12.688;2023-04-03T00:57:08;1.00;99.90
22153;DHT22;11242;50.536;12.688;2023-04-03T00:59:41;1.00;99.90
22153;DHT22;11242;50.536;12.688;2023-04-03T01:02:09;1.00;99.90
22153;DHT22;11242;50.536;12.688;2023-04-03T01:04:40;0.90;99.90
22153;DHT22;11242;50.536;12.688;2023-04-03T01:09:44;0.90;99.90
22153;DHT22;11242;50.536;12.688;2023-04-03T01:12:18;1.00;99.90
22153;DHT22;11242;50.536;12.688;2023-04-03T01:14:48;1.00;99.90
22153;DHT22;11242;50.536;12.688;2023-04-03T01:25:55;0.70;99.90
22153;DHT22;11242;50.536;12.688;2023-04-03T01:28:30;0.70;99.90
22153;DHT22;11242;50.536;12.688;2023-04-03T01:31:41;0.60;99.90
22153;DHT22;11242;50.536;12.688;2023-04-03T01:34:08;0.60;99.90
22153;DHT22;11242;50.536;12.688;2023-04-03T01:36:34;0.50;99.90
22153;DHT22;11242;50.536;12.688;2023-04-03T01:39:00;0.50;99.90
22153;DHT22;11242;50.536;12.688;2023-04-03T01:41:27;0.50;99.90
22153;DHT22;11242;50.536;12.688;2023-04-03T01:43:58;0.50;99.90
22153;DHT22;11242;50.536;12.688;2023-04-03T01:46:24;0.50;99.90
22153;DHT22;11242;50.536;12.688;2023-04-03T01:48:50;0.50;99.90
22153;DHT22;11242;50.536;12.688;2023-04-03T01:51:16;0.50;99.90
22153;DHT22;11242;50.536;12.688;2023-04-03T01:53:42;0.50;99.90
22153;DHT22;11242;50.536;12.688;2023-04-03T01:56:07;0.50;99.90
22153;DHT22;11242;50.536;12.688;2023-04-03T01:58:33;0.40;99.90
22153;DHT22;11242;50.536;12.688;2023-04-03T02:00:58;0.40;99.90
22153;DHT22;11242;50.536;12.688;2023-04-03T02:03:25;0.40;99.90
22153;DHT22;11242;50.536;12.688;2023-04-03T02:05:51;0.40;99.90
22153;DHT22;11242;50.536;12.688;2023-04-03T02:08:17;0.40;99.90
22153;DHT22;11242;50.536;12.688;2023-04-03T02:10:44;0.30;99.90
22153;DHT22;11242;50.536;12.688;2023-04-03T02:13:10;0.30;99.90
22153;DHT22;11242;50.536;12.688;2023-04-03T02:15:39;0.30;99.90
22153;DHT22;11242;50.536;12.688;2023-04-03T02:18:05;0.30;99.90
22153;DHT22;11242;50.536;12.688;2023-04-03T02:20:31;0.20;99.90
22153;DHT22;11242;50.536;12.688;2023-04-03T02:22:58;0.20;99.90
22153;DHT22;11242;50.536;12.688;2023-04-03T02:25:24;0.20;99.90
22153;DHT22;11242;50.536;12.688;2023-04-03T02:27:50;0.10;99.90
22153;DHT22;11242;50.536;12.688;2023-04-03T02:30:15;0.10;99.90
22153;DHT22;11242;50.536;12.688;2023-04-03T02:32:42;0.10;99.90
22153;DHT22;11242;50.536;12.688;2023-04-03T02:35:09;0.10;99.90
22153;DHT22;11242;50.536;12.688;2023-04-03T02:37:35;0.10;99.90
22153;DHT22;11242;50.536;12.688;2023-04-03T02:40:01;0.10;99.90
22153;DHT22;11242;50.536;12.688;2023-04-03T02:42:27;0.10;99.90
22153;DHT22;11242;50.536;12.688;2023-04-03T02:44:53;0.00;99.90
22153;DHT22;11242;50.536;12.688;2023-04-03T02:47:19;0.10;99.90
22153;DHT22;11242;50.536;12.688;2023-04-03T02:49:45;0.00;99.90
22153;DHT22;11242;50.536;12.688;2023-04-03T02:52:12;0.00;99.90
22153;DHT22;11242;50.536;12.688;2023-04-03T02:54:38;0.00;99.90
22153;DHT22;11242;50.536;12.688;2023-04-03T02:57:06;-0.10;99.90
22153;DHT22;11242;50.536;12.688;2023-04-03T02:59:35;-0.10;99.90
22153;DHT22;11242;50.536;12.688;2023-04-03T03:02:01;-0.10;99.90
22153;DHT22;11242;50.536;12.688;2023-04-03T03:04:26;-0.10;99.90
22153;DHT22;11242;50.536;12.688;2023-04-03T03:06:52;-0.10;99.90
22153;DHT22;11242;50.536;12.688;2023-04-03T03:09:18;-0.10;99.90
22153;DHT22;11242;50.536;12.688;2023-04-03T03:11:43;-0.10;99.90
22153;DHT22;11242;50.536;12.688;2023-04-03T03:14:09;-0.20;99.90
22153;DHT22;11242;50.536;12.688;2023-04-03T03:16:35;-0.20;99.90
22153;DHT22;11242;50.536;12.688;2023-04-03T03:19:01;-0.20;99.90
22153;DHT22;11242;50.536;12.688;2023-04-03T03:21:26;-0.20;99.90
22153;DHT22;11242;50.536;12.688;2023-04-03T03:23:52;-0.20;99.90
22153;DHT22;11242;50.536;12.688;2023-04-03T03:26:17;-0.30;99.90
22153;DHT22;11242;50.536;12.688;2023-04-03T03:28:43;-0.30;99.90
22153;DHT22;11242;50.536;12.688;2023-04-03T03:31:10;-0.30;99.90
22153;DHT22;11242;50.536;12.688;2023-04-03T03:33:38;-0.20;99.90
22153;DHT22;11242;50.536;12.688;2023-04-03T03:36:04;-0.30;99.90
22153;DHT22;11242;50.536;12.688;2023-04-03T03:38:29;-0.30;99.90
22153;DHT22;11242;50.536;12.688;2023-04-03T03:40:55;-0.40;99.90
22153;DHT22;11242;50.536;12.688;2023-04-03T03:43:22;-0.40;99.90
22153;DHT22;11242;50.536;12.688;2023-04-03T03:45:53;-0.40;99.90
22153;DHT22;11242;50.536;12.688;2023-04-03T03:48:20;-0.40;99.90
22153;DHT22;11242;50.536;12.688;2023-04-03T03:50:46;-0.40;99.90
22153;DHT22;11242;50.536;12.688;2023-04-03T03:53:12;-0.40;99.90
22153;DHT22;11242;50.536;12.688;2023-04-03T03:55:38;-0.40;99.90
22153;DHT22;11242;50.536;12.688;2023-04-03T03:58:03;-0.40;99.90
22153;DHT22;11242;50.536;12.688;2023-04-03T04:00:30;-0.40;99.90
22153;DHT22;11242;50.536;12.688;2023-04-03T04:02:56;-0.40;99.90
22153;DHT22;11242;50.536;12.688;2023-04-03T04:05:23;-0.40;99.90
22153;DHT22;11242;50.536;12.688;2023-04-03T04:07:49;-0.40;99.90
22153;DHT22;11242;50.536;12.688;2023-04-03T04:10:15;-0.40;99.90
22153;DHT22;11242;50.536;12.688;2023-04-03T04:12:42;-0.50;99.90
22153;DHT22;11242;50.536;12.688;2023-04-03T04:15:09;-0.50;99.90
22153;DHT22;11242;50.536;12.688;2023-04-03T04:17:35;-0.50;99.90
22153;DHT22;11242;50.536;12.688;2023-04-03T04:20:03;-0.50;99.90
22153;DHT22;11242;50.536;12.688;2023-04-03T04:22:30;-0.50;99.90
22153;DHT22;11242;50.536;12.688;2023-04-03T04:24:56;-0.50;99.90
22153;DHT22;11242;50.536;12.688;2023-04-03T04:27:21;-0.50;99.90
22153;DHT22;11242;50.536;12.688;2023-04-03T04:29:47;-0.60;99.90
22153;DHT22;11242;50.536;12.688;2023-04-03T04:32:14;-0.60;99.90
22153;DHT22;11242;50.536;12.688;2023-04-03T04:34:40;-0.60;99.90
22153;DHT22;11242;50.536;12.688;2023-04-03T04:37:05;-0.70;99.90
22153;DHT22;11242;50.536;12.688;2023-04-03T04:39:31;-0.70;99.90
22153;DHT22;11242;50.536;12.688;2023-04-03T04:41:57;-0.70;99.90
22153;DHT22;11242;50.536;12.688;2023-04-03T04:44:26;-0.70;99.90
22153;DHT22;11242;50.536;12.688;2023-04-03T04:46:51;-0.70;99.90
22153;DHT22;11242;50.536;12.688;2023-04-03T04:49:17;-0.70;99.90
22153;DHT22;11242;50.536;12.688;2023-04-03T04:51:43;-0.80;99.90
22153;DHT22;11242;50.536;12.688;2023-04-03T04:54:09;-0.80;99.90
22153;DHT22;11242;50.536;12.688;2023-04-03T04:56:36;-0.80;99.90
22153;DHT22;11242;50.536;12.688;2023-04-03T04:59:01;-0.80;99.90
22153;DHT22;11242;50.536;12.688;2023-04-03T05:01:27;-0.70;99.90
22153;DHT22;11242;50.536;12.688;2023-04-03T05:03:59;-0.80;99.90
22153;DHT22;11242;50.536;12.688;2023-04-03T05:06:25;-0.70;99.90
22153;DHT22;11242;50.536;12.688;2023-04-03T05:08:52;-0.70;99.90
22153;DHT22;11242;50.536;12.688;2023-04-03T05:11:18;-0.70;99.90
22153;DHT22;11242;50.536;12.688;2023-04-03T05:13:47;-0.70;99.90
22153;DHT22;11242;50.536;12.688;2023-04-03T05:16:13;-0.70;99.90
22153;DHT22;11242;50.536;12.688;2023-04-03T05:18:39;-0.60;99.90
22153;DHT22;11242;50.536;12.688;2023-04-03T05:21:08;-0.60;99.90
22153;DHT22;11242;50.536;12.688;2023-04-03T05:23:35;-0.60;99.90
22153;DHT22;11242;50.536;12.688;2023-04-03T05:26:02;-0.60;99.90
22153;DHT22;11242;50.536;12.688;2023-04-03T05:28:28;-0.50;99.90
22153;DHT22;11242;50.536;12.688;2023-04-03T05:30:57;-0.50;99.90
22153;DHT22;11242;50.536;12.688;2023-04-03T05:33:26;-0.50;99.90
22153;DHT22;11242;50.536;12.688;2023-04-03T05:35:54;-0.40;99.90
22153;DHT22;11242;50.536;12.688;2023-04-03T05:38:24;-0.30;99.90
22153;DHT22;11242;50.536;12.688;2023-04-03T05:40:50;-0.10;99.90
22153;DHT22;11242;50.536;12.688;2023-04-03T05:43:17;-0.10;99.90
22153;DHT22;11242;50.536;12.688;2023-04-03T05:45:43;-0.20;99.90
22153;DHT22;11242;50.536;12.688;2023-04-03T05:48:09;-0.30;99.90
22153;DHT22;11242;50.536;12.688;2023-04-03T05:50:35;-0.30;99.90
22153;DHT22;11242;50.536;12.688;2023-04-03T05:53:02;0.40;99.90
22153;DHT22;11242;50.536;12.688;2023-04-03T05:55:30;2.40;99.90
22153;DHT22;11242;50.536;12.688;2023-04-03T05:57:56;4.40;99.90
22153;DHT22;11242;50.536;12.688;2023-04-03T06:00:22;4.90;99.90
22153;DHT22;11242;50.536;12.688;2023-04-03T06:02:56;4.50;99.90
22153;DHT22;11242;50.536;12.688;2023-04-03T06:05:24;3.20;99.90
22153;DHT22;11242;50.536;12.688;2023-04-03T06:07:49;2.10;99.90
22153;DHT22;11242;50.536;12.688;2023-04-03T06:10:15;2.60;99.90
22153;DHT22;11242;50.536;12.688;2023-04-03T06:12:41;2.30;99.90
22153;DHT22;11242;50.536;12.688;2023-04-03T06:15:07;1.80;99.90
22153;DHT22;11242;50.536;12.688;2023-04-03T06:17:36;1.10;99.90
22153;DHT22;11242;50.536;12.688;2023-04-03T06:20:01;0.70;99.90
22153;DHT22;11242;50.536;12.688;2023-04-03T06:22:27;0.30;99.90
22153;DHT22;11242;50.536;12.688;2023-04-03T06:24:55;0.20;99.90
22153;DHT22;11242;50.536;12.688;2023-04-03T06:27:21;0.30;99.90
22153;DHT22;11242;50.536;12.688;2023-04-03T06:29:47;1.30;99.90
22153;DHT22;11242;50.536;12.688;2023-04-03T06:32:14;4.00;99.90
22153;DHT22;11242;50.536;12.688;2023-04-03T06:34:41;5.60;99.90
22153;DHT22;11242;50.536;12.688;2023-04-03T06:37:14;6.90;99.90
22153;DHT22;11242;50.536;12.688;2023-04-03T06:39:40;6.30;98.40
22153;DHT22;11242;50.536;12.688;2023-04-03T06:42:05;6.00;99.10
22153;DHT22;11242;50.536;12.688;2023-04-03T06:44:37;4.70;99.00
22153;DHT22;11242;50.536;12.688;2023-04-03T06:47:03;3.70;99.90
22153;DHT22;11242;50.536;12.688;2023-04-03T06:49:29;4.40;99.90
22153;DHT22;11242;50.536;12.688;2023-04-03T06:51:55;4.00;99.90
22153;DHT22;11242;50.536;12.688;2023-04-03T06:54:22;3.40;99.90
22153;DHT22;11242;50.536;12.688;2023-04-03T06:56:48;3.10;99.90
22153;DHT22;11242;50.536;12.688;2023-04-03T06:59:14;3.00;99.90
22153;DHT22;11242;50.536;12.688;2023-04-03T07:01:40;2.60;99.90
22153;DHT22;11242;50.536;12.688;2023-04-03T07:04:06;2.10;99.90
22153;DHT22;11242;50.536;12.688;2023-04-03T07:06:33;2.00;99.90
22153;DHT22;11242;50.536;12.688;2023-04-03T07:08:59;1.90;99.90
22153;DHT22;11242;50.536;12.688;2023-04-03T07:11:25;1.80;99.90
22153;DHT22;11242;50.536;12.688;2023-04-03T07:13:51;1.30;99.90
22153;DHT22;11242;50.536;12.688;2023-04-03T07:16:18;1.10;99.90
22153;DHT22;11242;50.536;12.688;2023-04-03T07:18:44;0.60;99.90
22153;DHT22;11242;50.536;12.688;2023-04-03T07:21:10;0.60;99.90
22153;DHT22;11242;50.536;12.688;2023-04-03T07:23:36;1.70;99.90
22153;DHT22;11242;50.536;12.688;2023-04-03T07:26:01;3.20;99.90
22153;DHT22;11242;50.536;12.688;2023-04-03T07:28:27;5.60;99.90
22153;DHT22;11242;50.536;12.688;2023-04-03T07:30:59;5.10;99.50
22153;DHT22;11242;50.536;12.688;2023-04-03T07:33:25;3.60;99.90
22153;DHT22;11242;50.536;12.688;2023-04-03T07:35:50;2.20;99.90
22153;DHT22;11242;50.536;12.688;2023-04-03T07:38:16;2.20;99.90
22153;DHT22;11242;50.536;12.688;2023-04-03T07:40:49;1.60;99.90
22153;DHT22;11242;50.536;12.688;2023-04-03T07:43:16;1.20;99.90
22153;DHT22;11242;50.536;12.688;2023-04-03T07:45:42;0.80;99.90
22153;DHT22;11242;50.536;12.688;2023-04-03T07:48:09;0.50;99.90
22153;DHT22;11242;50.536;12.688;2023-04-03T07:50:35;0.60;99.90
22153;DHT22;11242;50.536;12.688;2023-04-03T07:53:02;0.50;99.90
22153;DHT22;11242;50.536;12.688;2023-04-03T07:55:28;0.40;99.90
22153;DHT22;11242;50.536;12.688;2023-04-03T07:57:54;0.40;99.90
22153;DHT22;11242;50.536;12.688;2023-04-03T08:00:20;0.80;99.90
22153;DHT22;11242;50.536;12.688;2023-04-03T08:02:46;3.20;99.90
22153;DHT22;11242;50.536;12.688;2023-04-03T08:05:18;5.30;99.00
22153;DHT22;11242;50.536;12.688;2023-04-03T08:07:44;6.30;95.50
22153;DHT22;11242;50.536;12.688;2023-04-03T08:10:10;6.60;92.60
22153;DHT22;11242;50.536;12.688;2023-04-03T08:12:35;7.60;88.90
22153;DHT22;11242;50.536;12.688;2023-04-03T08:15:02;8.20;86.00
22153;DHT22;11242;50.536;12.688;2023-04-03T08:17:28;9.00;80.20
22153;DHT22;11242;50.536;12.688;2023-04-03T08:19:54;9.70;75.00
22153;DHT22;11242;50.536;12.688;2023-04-03T08:22:19;10.30;65.40
22153;DHT22;11242;50.536;12.688;2023-04-03T08:24:45;7.90;69.50
22153;DHT22;11242;50.536;12.688;2023-04-03T08:27:11;6.20;73.60
22153;DHT22;11242;50.536;12.688;2023-04-03T08:29:36;3.70;81.30
22153;DHT22;11242;50.536;12.688;2023-04-03T08:32:04;3.00;89.30
22153;DHT22;11242;50.536;12.688;2023-04-03T08:34:29;4.20;85.90
22153;DHT22;11242;50.536;12.688;2023-04-03T08:36:55;5.70;84.30
22153;DHT22;11242;50.536;12.688;2023-04-03T08:39:21;8.00;78.80
22153;DHT22;11242;50.536;12.688;2023-04-03T08:41:46;8.60;70.80
22153;DHT22;11242;50.536;12.688;2023-04-03T08:44:52;8.20;69.30
22153;DHT22;11242;50.536;12.688;2023-04-03T08:47:28;6.50;70.80
22153;DHT22;11242;50.536;12.688;2023-04-03T08:50:05;6.60;73.50
22153;DHT22;11242;50.536;12.688;2023-04-03T08:52:41;6.70;73.10
22153;DHT22;11242;50.536;12.688;2023-04-03T08:55:41;7.10;70.40
22153;DHT22;11242;50.536;12.688;2023-04-03T08:58:19;5.80;73.60
22153;DHT22;11242;50.536;12.688;2023-04-03T09:03:18;9.30;69.10
22153;DHT22;11242;50.536;12.688;2023-04-03T09:05:57;8.60;70.40
22153;DHT22;11242;50.536;12.688;2023-04-03T09:08:35;6.10;74.20
22153;DHT22;11242;50.536;12.688;2023-04-03T09:13:53;3.50;86.40
22153;DHT22;11242;50.536;12.688;2023-04-03T09:16:45;2.70;88.30
22153;DHT22;11242;50.536;12.688;2023-04-03T09:22:20;2.50;92.00
22153;DHT22;11242;50.536;12.688;2023-04-03T09:24:50;2.00;92.40
22153;DHT22;11242;50.536;12.688;2023-04-03T09:27:17;2.30;93.10
22153;DHT22;11242;50.536;12.688;2023-04-03T09:29:44;2.30;92.20
22153;DHT22;11242;50.536;12.688;2023-04-03T09:32:27;2.30;92.40
22153;DHT22;11242;50.536;12.688;2023-04-03T09:34:56;1.80;92.90
22153;DHT22;11242;50.536;12.688;2023-04-03T09:37:44;1.60;94.10
22153;DHT22;11242;50.536;12.688;2023-04-03T09:43:33;1.90;97.40
22153;DHT22;11242;50.536;12.688;2023-04-03T09:45:40;2.20;97.40
22153;DHT22;11242;50.536;12.688;2023-04-03T09:48:12;2.40;96.40
22153;DHT22;11242;50.536;12.688;2023-04-03T09:53:38;2.10;96.50
22153;DHT22;11242;50.536;12.688;2023-04-03T09:56:28;1.90;97.40
22153;DHT22;11242;50.536;12.688;2023-04-03T10:01:32;1.90;94.30
22153;DHT22;11242;50.536;12.688;2023-04-03T10:04:15;2.10;94.60
22153;DHT22;11242;50.536;12.688;2023-04-03T10:06:44;2.30;96.10
22153;DHT22;11242;50.536;12.688;2023-04-03T10:09:21;2.40;92.00
22153;DHT22;11242;50.536;12.688;2023-04-03T10:12:08;2.50;94.30
22153;DHT22;11242;50.536;12.688;2023-04-03T10:14:40;2.50;93.90
22153;DHT22;11242;50.536;12.688;2023-04-03T10:17:33;2.70;93.90
22153;DHT22;11242;50.536;12.688;2023-04-03T10:28:24;2.70;92.00
22153;DHT22;11242;50.536;12.688;2023-04-03T10:31:16;2.50;92.70
22153;DHT22;11242;50.536;12.688;2023-04-03T10:42:08;2.70;93.00
22153;DHT22;11242;50.536;12.688;2023-04-03T10:50:15;2.20;91.70
22153;DHT22;11242;50.536;12.688;2023-04-03T10:53:12;2.50;90.90
22153;DHT22;11242;50.536;12.688;2023-04-03T10:56:03;3.20;90.50
22153;DHT22;11242;50.536;12.688;2023-04-03T10:58:36;2.80;91.00
22153;DHT22;11242;50.536;12.688;2023-04-03T11:01:12;2.50;92.50
22153;DHT22;11242;50.536;12.688;2023-04-03T11:03:58;2.60;92.20
22153;DHT22;11242;50.536;12.688;2023-04-03T11:06:26;2.40;91.40
22153;DHT22;11242;50.536;12.688;2023-04-03T11:09:00;2.20;90.30
22153;DHT22;11242;50.536;12.688;2023-04-03T11:11:36;2.40;88.20
22153;DHT22;11242;50.536;12.688;2023-04-03T11:14:09;2.40;88.20
22153;DHT22;11242;50.536;12.688;2023-04-03T11:16:43;2.60;90.30
22153;DHT22;11242;50.536;12.688;2023-04-03T11:19:33;3.00;90.10
22153;DHT22;11242;50.536;12.688;2023-04-03T11:22:13;3.20;90.90
22153;DHT22;11242;50.536;12.688;2023-04-03T11:24:43;2.60;89.00
22153;DHT22;11242;50.536;12.688;2023-04-03T11:27:19;2.20;90.50
22153;DHT22;11242;50.536;12.688;2023-04-03T11:29:48;2.50;93.20
22153;DHT22;11242;50.536;12.688;2023-04-03T11:32:48;2.80;90.40
22153;DHT22;11242;50.536;12.688;2023-04-03T11:35:20;3.00;90.00
22153;DHT22;11242;50.536;12.688;2023-04-03T11:37:49;3.00;88.30
22153;DHT22;11242;50.536;12.688;2023-04-03T11:42:45;2.50;86.40
22153;DHT22;11242;50.536;12.688;2023-04-03T11:47:57;2.60;87.70
22153;DHT22;11242;50.536;12.688;2023-04-03T12:16:26;3.10;90.50
22153;DHT22;11242;50.536;12.688;2023-04-03T12:24:27;2.90;91.30
22153;DHT22;11242;50.536;12.688;2023-04-03T12:43:05;3.70;90.00
22153;DHT22;11242;50.536;12.688;2023-04-03T12:45:51;3.80;90.00
22153;DHT22;11242;50.536;12.688;2023-04-03T12:48:22;3.50;90.60
22153;DHT22;11242;50.536;12.688;2023-04-03T12:50:50;3.10;92.40
22153;DHT22;11242;50.536;12.688;2023-04-03T12:53:22;2.80;93.20
22153;DHT22;11242;50.536;12.688;2023-04-03T12:55:54;2.80;93.60
22153;DHT22;11242;50.536;12.688;2023-04-03T12:58:27;2.90;93.70
22153;DHT22;11242;50.536;12.688;2023-04-03T13:01:03;2.80;93.70
22153;DHT22;11242;50.536;12.688;2023-04-03T13:03:30;2.80;93.00
22153;DHT22;11242;50.536;12.688;2023-04-03T13:06:05;2.90;92.90
22153;DHT22;11242;50.536;12.688;2023-04-03T13:08:31;3.00;91.50
22153;DHT22;11242;50.536;12.688;2023-04-03T13:11:01;3.00;91.50
22153;DHT22;11242;50.536;12.688;2023-04-03T13:13:28;2.90;91.20
22153;DHT22;11242;50.536;12.688;2023-04-03T13:15:54;3.00;91.40
22153;DHT22;11242;50.536;12.688;2023-04-03T13:18:34;3.30;91.40
22153;DHT22;11242;50.536;12.688;2023-04-03T13:23:32;3.60;89.00
22153;DHT22;11242;50.536;12.688;2023-04-03T13:26:00;3.50;90.30
22153;DHT22;11242;50.536;12.688;2023-04-03T13:28:30;3.30;91.20
22153;DHT22;11242;50.536;12.688;2023-04-03T13:31:07;2.90;90.90
22153;DHT22;11242;50.536;12.688;2023-04-03T13:33:36;2.80;91.70
22153;DHT22;11242;50.536;12.688;2023-04-03T13:36:35;3.00;91.90
22153;DHT22;11242;50.536;12.688;2023-04-03T13:41:45;2.70;90.80
22153;DHT22;11242;50.536;12.688;2023-04-03T13:47:00;3.10;90.90
22153;DHT22;11242;50.536;12.688;2023-04-03T13:49:32;3.20;90.60
22153;DHT22;11242;50.536;12.688;2023-04-03T13:51:58;3.30;90.50
22153;DHT22;11242;50.536;12.688;2023-04-03T13:54:36;3.40;88.10
22153;DHT22;11242;50.536;12.688;2023-04-03T13:57:10;3.30;87.70
22153;DHT22;11242;50.536;12.688;2023-04-03T13:59:36;3.10;85.20
22153;DHT22;11242;50.536;12.688;2023-04-03T14:04:47;2.70;87.20
22153;DHT22;11242;50.536;12.688;2023-04-03T14:07:15;2.70;89.70
22153;DHT22;11242;50.536;12.688;2023-04-03T14:09:42;2.80;90.80
22153;DHT22;11242;50.536;12.688;2023-04-03T14:14:45;2.60;91.90
22153;DHT22;11242;50.536;12.688;2023-04-03T14:17:17;2.60;90.80
22153;DHT22;11242;50.536;12.688;2023-04-03T14:19:44;2.50;90.90
22153;DHT22;11242;50.536;12.688;2023-04-03T14:22:22;2.40;90.70
22153;DHT22;11242;50.536;12.688;2023-04-03T14:24:49;2.60;90.70
22153;DHT22;11242;50.536;12.688;2023-04-03T14:27:23;2.60;89.60
22153;DHT22;11242;50.536;12.688;2023-04-03T14:29:50;2.50;88.20
22153;DHT22;11242;50.536;12.688;2023-04-03T14:32:18;2.50;89.80
22153;DHT22;11242;50.536;12.688;2023-04-03T14:34:45;2.40;90.30
22153;DHT22;11242;50.536;12.688;2023-04-03T14:37:13;2.40;90.30
22153;DHT22;11242;50.536;12.688;2023-04-03T14:39:40;2.20;90.20
22153;DHT22;11242;50.536;12.688;2023-04-03T14:42:06;2.10;90.80
22153;DHT22;11242;50.536;12.688;2023-04-03T14:44:31;2.20;91.40
22153;DHT22;11242;50.536;12.688;2023-04-03T14:46:57;2.20;91.00
22153;DHT22;11242;50.536;12.688;2023-04-03T14:49:27;2.20;90.70
22153;DHT22;11242;50.536;12.688;2023-04-03T14:51:54;2.40;91.20
22153;DHT22;11242;50.536;12.688;2023-04-03T14:54:21;2.50;90.70
22153;DHT22;11242;50.536;12.688;2023-04-03T14:56:51;2.60;90.10
22153;DHT22;11242;50.536;12.688;2023-04-03T14:59:17;2.70;89.90
22153;DHT22;11242;50.536;12.688;2023-04-03T15:01:45;2.60;88.40
22153;DHT22;11242;50.536;12.688;2023-04-03T15:04:14;2.60;90.00
22153;DHT22;11242;50.536;12.688;2023-04-03T15:06:40;2.50;89.30
22153;DHT22;11242;50.536;12.688;2023-04-03T15:09:14;2.50;90.50
22153;DHT22;11242;50.536;12.688;2023-04-03T15:11:43;2.40;90.50
22153;DHT22;11242;50.536;12.688;2023-04-03T15:14:09;2.30;90.60
22153;DHT22;11242;50.536;12.688;2023-04-03T15:16:35;2.20;90.80
22153;DHT22;11242;50.536;12.688;2023-04-03T15:19:01;2.20;91.00
22153;DHT22;11242;50.536;12.688;2023-04-03T15:21:26;2.10;90.90
22153;DHT22;11242;50.536;12.688;2023-04-03T15:23:52;2.20;90.80
22153;DHT22;11242;50.536;12.688;2023-04-03T15:26:17;2.20;90.80
22153;DHT22;11242;50.536;12.688;2023-04-03T15:28:43;2.30;91.10
22153;DHT22;11242;50.536;12.688;2023-04-03T15:31:10;2.40;90.20
22153;DHT22;11242;50.536;12.688;2023-04-03T15:33:36;2.30;89.10
22153;DHT22;11242;50.536;12.688;2023-04-03T15:36:03;2.10;90.50
22153;DHT22;11242;50.536;12.688;2023-04-03T15:38:28;2.10;91.20
22153;DHT22;11242;50.536;12.688;2023-04-03T15:40:55;2.00;92.40
22153;DHT22;11242;50.536;12.688;2023-04-03T15:43:21;1.80;92.90
22153;DHT22;11242;50.536;12.688;2023-04-03T15:45:47;1.70;93.30
22153;DHT22;11242;50.536;12.688;2023-04-03T15:48:13;1.70;93.50
22153;DHT22;11242;50.536;12.688;2023-04-03T15:50:39;1.70;93.60
22153;DHT22;11242;50.536;12.688;2023-04-03T15:53:05;1.70;93.70
22153;DHT22;11242;50.536;12.688;2023-04-03T15:55:33;1.60;93.10
22153;DHT22;11242;50.536;12.688;2023-04-03T15:58:00;1.50;94.30
22153;DHT22;11242;50.536;12.688;2023-04-03T16:00:27;1.60;94.30
22153;DHT22;11242;50.536;12.688;2023-04-03T16:02:56;1.60;93.90
22153;DHT22;11242;50.536;12.688;2023-04-03T16:05:23;1.60;93.60
22153;DHT22;11242;50.536;12.688;2023-04-03T16:07:49;1.40;93.90
22153;DHT22;11242;50.536;12.688;2023-04-03T16:10:17;1.40;94.30
22153;DHT22;11242;50.536;12.688;2023-04-03T16:12:43;1.40;94.50
22153;DHT22;11242;50.536;12.688;2023-04-03T16:15:10;1.50;94.70
22153;DHT22;11242;50.536;12.688;2023-04-03T16:17:36;1.60;94.90
22153;DHT22;11242;50.536;12.688;2023-04-03T16:20:03;1.60;94.60
22153;DHT22;11242;50.536;12.688;2023-04-03T16:22:29;1.60;94.70
22153;DHT22;11242;50.536;12.688;2023-04-03T16:24:55;1.50;94.70
22153;DHT22;11242;50.536;12.688;2023-04-03T16:27:22;1.50;94.80
22153;DHT22;11242;50.536;12.688;2023-04-03T16:29:55;1.40;94.90
22153;DHT22;11242;50.536;12.688;2023-04-03T16:32:22;1.30;95.50
22153;DHT22;11242;50.536;12.688;2023-04-03T16:34:48;1.20;95.90
22153;DHT22;11242;50.536;12.688;2023-04-03T16:37:15;1.20;96.30
22153;DHT22;11242;50.536;12.688;2023-04-03T16:39:41;1.20;96.30
22153;DHT22;11242;50.536;12.688;2023-04-03T16:42:06;1.20;97.20
22153;DHT22;11242;50.536;12.688;2023-04-03T16:44:34;1.20;97.80
22153;DHT22;11242;50.536;12.688;2023-04-03T16:47:00;1.20;98.20
22153;DHT22;11242;50.536;12.688;2023-04-03T16:49:25;1.20;99.30
22153;DHT22;11242;50.536;12.688;2023-04-03T16:51:55;1.20;99.40
22153;DHT22;11242;50.536;12.688;2023-04-03T16:54:21;1.20;99.90
22153;DHT22;11242;50.536;12.688;2023-04-03T16:56:46;1.10;99.90
22153;DHT22;11242;50.536;12.688;2023-04-03T16:59:12;1.10;99.90
22153;DHT22;11242;50.536;12.688;2023-04-03T17:01:37;1.10;99.90
22153;DHT22;11242;50.536;12.688;2023-04-03T17:04:03;1.00;99.90
22153;DHT22;11242;50.536;12.688;2023-04-03T17:06:28;0.90;99.90
22153;DHT22;11242;50.536;12.688;2023-04-03T17:08:54;0.90;99.90
22153;DHT22;11242;50.536;12.688;2023-04-03T17:11:27;0.90;99.90
22153;DHT22;11242;50.536;12.688;2023-04-03T17:13:53;0.80;99.90
22153;DHT22;11242;50.536;12.688;2023-04-03T17:16:18;0.80;99.90
22153;DHT22;11242;50.536;12.688;2023-04-03T17:18:45;0.80;99.90
22153;DHT22;11242;50.536;12.688;2023-04-03T17:21:12;0.80;99.90
22153;DHT22;11242;50.536;12.688;2023-04-03T17:23:39;0.70;99.90
22153;DHT22;11242;50.536;12.688;2023-04-03T17:26:06;0.70;99.90
22153;DHT22;11242;50.536;12.688;2023-04-03T17:28:31;0.70;99.70
22153;DHT22;11242;50.536;12.688;2023-04-03T17:30:58;0.70;99.90
22153;DHT22;11242;50.536;12.688;2023-04-03T17:33:25;0.70;99.30
22153;DHT22;11242;50.536;12.688;2023-04-03T17:35:56;0.60;99.80